Atlanta, Georgia
Current Conditions -  °F | °C
As of 4:52 AM on Thursday 27 Nov 2014 (Local Time) from KATL Reporting Station
Few Clouds Few Clouds  
Wind Chill: 36°   Ceiling: Unl
Heat Index: 42°   Visibility: 10mi
Dew Point: 28°   Wind: 10mph
Humidity: 58%   Direction: 280°W
Pressure: 30.13"   Gusts: NA
Location:  33.75°N, 84.39°W
Report Text: KATL 270952Z 28009KT 10SM FEW038 06/M02 A3013 RMK AO2 SLP206 T00561022
Loading
Personal Weather Stations






























Interactive Weather Map New forecast layout! Learn more

10-Day Weather Forecast

Advertisements
Track Severe Weather on mobile